Terminal Aerodrome Forecast
Issued by NWS Knoxville/Tri Cities, TN

Home | Current Version | Previous Version | Text Only | Print | Product List | Glossary On
Versions: 1 2 3 4 5 6 7 8 9 10 11 12 13 14 15 16 17 18 19 20 21 22 23 24 25 26 27 28 29 30 31 32 33 34 35 36 37 38 39 40 41 42 43 44 45 46 47 48 49 50
000
FTUS44 KMRX 051427 AAA
TAFTRI
TAF AMD
KTRI 051427Z 0514/0612 VRB04KT P6SM SCT025 BKN250
     FM051700 22005KT P6SM BKN030
     FM052100 23006KT P6SM VCTS SCT025CB BKN035
     FM060200 23005KT 4SM -SHRA BR OVC020
     FM060600 26005KT 3SM -SHRA BR OVC007=

USA.gov is the U.S. government's official web portal to all federal, state and local government web resources and services.